Time;durP1;ratioP1;P1;durP2;ratioP2;P2;SDS_P1;SDS_P2;PMS_P1;PMS_P2;Temp;Humidity;BMP_temperature;BMP_pressure;BME280_temperature;BME280_humidity;BME280_pressure;Samples;Min_cycle;Max_cycle;Signal;HPM_P1;HPM_P2
2021/04/04 00:00:09;;;;;;;11.32;9.50;;;;;;;;;;10001300;29;20048;-61
2021/04/04 00:05:09;;;;;;;10.82;9.27;;;;;;;;;;10003023;29;20300;-60
2021/04/04 00:10:10;;;;;;;12.00;9.68;;;;;;;;;;10001581;29;20090;-61
2021/04/04 00:15:09;;;;;;;9.85;8.77;;;;;;;;;;10001524;29;20499;-59
2021/04/04 00:20:07;;;;;;;9.68;7.82;;;;;;;;;;10000560;29;20082;-60
2021/04/04 00:25:05;;;;;;;10.73;8.57;;;;;;;;;;10004128;29;20068;-60
2021/04/04 00:30:04;;;;;;;10.15;8.65;;;;;;;;;;10020963;29;20084;-61
2021/04/04 00:35:04;;;;;;;10.45;9.30;;;;;;;;;;10022772;29;20075;-61
2021/04/04 00:40:01;;;;;;;12.65;8.40;;;;;;;;;;10001056;29;20087;-60
2021/04/04 00:45:00;;;;;;;14.25;10.35;;;;;;;;;;10011511;29;20052;-58
2021/04/04 00:49:58;;;;;;;7.88;7.10;;;;;;;;;;10014210;29;20090;-58
2021/04/04 00:54:57;;;;;;;8.98;7.65;;;;;;;;;;10032739;29;20044;-60
2021/04/04 00:59:55;;;;;;;13.57;8.55;;;;;;;;;;10010019;29;20071;-60
2021/04/04 01:04:54;;;;;;;9.13;7.50;;;;;;;;;;10002845;29;20048;-62
2021/04/04 01:09:51;;;;;;;8.35;7.55;;;;;;;;;;10000023;29;20501;-62
2021/04/04 01:14:52;;;;;;;11.35;9.60;;;;;;;;;;9998641;29;20477;-61
2021/04/04 01:19:58;;;;;;;8.80;7.90;;;;;;;;;;10025916;29;20087;-61
2021/04/04 01:25:04;;;;;;;9.40;7.95;;;;;;;;;;10027929;29;20048;-61
2021/04/04 01:30:04;;;;;;;8.63;7.72;;;;;;;;;;9998879;29;20087;-61
2021/04/04 01:35:04;;;;;;;10.98;8.55;;;;;;;;;;9999376;29;20075;-61
2021/04/04 01:40:03;;;;;;;9.55;8.18;;;;;;;;;;9999343;29;20509;-60
2021/04/04 01:45:02;;;;;;;9.63;8.68;;;;;;;;;;9999386;29;20071;-61
2021/04/04 01:49:59;;;;;;;9.20;8.00;;;;;;;;;;9999033;29;20090;-61
2021/04/04 01:54:57;;;;;;;11.18;7.72;;;;;;;;;;9999086;29;20060;-60
2021/04/04 01:59:55;;;;;;;8.80;7.90;;;;;;;;;;9999074;29;20258;-62
2021/04/04 02:04:53;;;;;;;11.07;7.88;;;;;;;;;;10026277;29;20067;-61
2021/04/04 02:09:52;;;;;;;11.68;8.05;;;;;;;;;;10006861;29;20106;-61
2021/04/04 02:14:50;;;;;;;9.20;8.30;;;;;;;;;;10037422;29;20416;-59
2021/04/04 02:19:47;;;;;;;8.93;8.02;;;;;;;;;;10035352;29;20501;-61
2021/04/04 02:24:45;;;;;;;9.05;8.23;;;;;;;;;;10003490;29;20048;-60
2021/04/04 02:29:43;;;;;;;8.95;7.78;;;;;;;;;;10001646;29;20087;-61
2021/04/04 02:34:42;;;;;;;8.13;7.32;;;;;;;;;;10032573;29;20075;-61
2021/04/04 02:39:45;;;;;;;9.60;7.18;;;;;;;;;;10010916;29;20048;-61
2021/04/04 02:44:43;;;;;;;8.00;7.20;;;;;;;;;;10043621;29;20516;-60
2021/04/04 02:49:44;;;;;;;8.68;7.78;;;;;;;;;;10043454;29;20079;-61
2021/04/04 02:54:42;;;;;;;7.40;6.70;;;;;;;;;;10006608;29;20048;-61
2021/04/04 02:59:41;;;;;;;7.78;6.93;;;;;;;;;;10004523;29;20075;-61
2021/04/04 03:04:41;;;;;;;9.82;7.95;;;;;;;;;;10004271;29;20048;-61
2021/04/04 03:09:39;;;;;;;8.43;7.38;;;;;;;;;;10004008;29;20079;-61
2021/04/04 03:14:37;;;;;;;8.52;7.65;;;;;;;;;;10003780;29;20410;-60
2021/04/04 03:19:35;;;;;;;8.35;7.32;;;;;;;;;;10003647;29;20083;-61
2021/04/04 03:24:33;;;;;;;8.45;6.82;;;;;;;;;;10021542;29;20054;-61
2021/04/04 03:29:31;;;;;;;14.27;9.60;;;;;;;;;;10031632;29;20087;-61
2021/04/04 03:34:28;;;;;;;11.48;9.45;;;;;;;;;;10013349;29;20087;-61
2021/04/04 03:39:27;;;;;;;10.85;9.75;;;;;;;;;;10002832;29;20076;-61
2021/04/04 03:44:27;;;;;;;11.30;9.27;;;;;;;;;;10014204;29;20074;-61
2021/04/04 03:49:25;;;;;;;12.52;10.27;;;;;;;;;;10014921;29;20526;-61
2021/04/04 03:54:23;;;;;;;12.85;10.40;;;;;;;;;;10024268;29;20164;-61
2021/04/04 03:59:21;;;;;;;18.15;14.32;;;;;;;;;;10040619;29;20085;-61
2021/04/04 04:04:20;;;;;;;13.82;11.55;;;;;;;;;;10008255;29;20080;-62
2021/04/04 04:09:18;;;;;;;10.00;8.95;;;;;;;;;;9998832;29;20052;-61
2021/04/04 04:14:17;;;;;;;10.77;9.13;;;;;;;;;;10001386;29;20143;-61
2021/04/04 04:19:15;;;;;;;10.85;8.93;;;;;;;;;;10000933;29;20076;-61
2021/04/04 04:24:15;;;;;;;13.80;11.23;;;;;;;;;;10004155;29;20086;-62
2021/04/04 04:29:13;;;;;;;14.90;13.32;;;;;;;;;;10024944;29;20075;-61
2021/04/04 04:34:11;;;;;;;16.98;13.88;;;;;;;;;;10015182;29;20086;-61
2021/04/04 04:39:10;;;;;;;12.48;9.75;;;;;;;;;;10038701;29;20056;-61
2021/04/04 04:44:09;;;;;;;13.10;11.52;;;;;;;;;;10026460;29;20091;-61
2021/04/04 04:49:07;;;;;;;11.70;10.20;;;;;;;;;;9999786;29;20080;-61
2021/04/04 04:54:05;;;;;;;11.63;10.35;;;;;;;;;;10000126;29;20075;-61
2021/04/04 04:59:04;;;;;;;12.95;10.95;;;;;;;;;;9999700;29;20052;-61
2021/04/04 05:04:02;;;;;;;16.88;14.05;;;;;;;;;;10001622;29;20075;-61
2021/04/04 05:09:00;;;;;;;22.48;16.15;;;;;;;;;;10017769;29;20081;-61
2021/04/04 05:13:58;;;;;;;31.27;19.90;;;;;;;;;;10012674;29;20083;-60
2021/04/04 05:18:55;;;;;;;26.67;18.58;;;;;;;;;;10037508;29;20074;-61
2021/04/04 05:23:56;;;;;;;38.40;25.17;;;;;;;;;;10029859;29;20084;-61
2021/04/04 05:29:00;;;;;;;38.97;24.83;;;;;;;;;;9998528;29;20474;-61
2021/04/04 05:33:58;;;;;;;39.22;25.98;;;;;;;;;;9999086;29;20080;-61
2021/04/04 05:38:56;;;;;;;18.05;15.95;;;;;;;;;;9997953;29;20079;-62
2021/04/04 05:43:55;;;;;;;26.52;22.02;;;;;;;;;;9998691;29;20047;-61
2021/04/04 05:48:57;;;;;;;15.88;13.88;;;;;;;;;;9996749;29;20052;-62
2021/04/04 05:54:07;;;;;;;16.08;14.13;;;;;;;;;;9996798;29;20173;-61
2021/04/04 05:59:05;;;;;;;20.83;18.58;;;;;;;;;;9998986;29;20067;-61
2021/04/04 06:04:03;;;;;;;19.55;17.08;;;;;;;;;;9997196;29;20059;-61
2021/04/04 06:09:14;;;;;;;20.42;18.02;;;;;;;;;;9998694;29;20414;-62
2021/04/04 06:14:17;;;;;;;18.88;15.82;;;;;;;;;;10001731;29;20449;-60
2021/04/04 06:19:21;;;;;;;24.30;20.75;;;;;;;;;;10004889;29;20074;-62
2021/04/04 06:24:26;;;;;;;28.77;25.30;;;;;;;;;;10005061;29;20071;-60
2021/04/04 06:29:28;;;;;;;27.88;21.02;;;;;;;;;;10003109;29;20090;-62
2021/04/04 06:34:30;;;;;;;33.20;26.38;;;;;;;;;;10004233;29;20091;-61
2021/04/04 06:39:36;;;;;;;27.23;22.98;;;;;;;;;;10001907;29;20099;-61
2021/04/04 06:44:39;;;;;;;24.48;20.92;;;;;;;;;;10004305;29;20083;-61
2021/04/04 06:49:40;;;;;;;21.92;19.58;;;;;;;;;;10003463;29;20518;-61
2021/04/04 06:54:46;;;;;;;23.00;19.92;;;;;;;;;;10003682;29;20076;-61
2021/04/04 06:59:50;;;;;;;26.50;22.17;;;;;;;;;;10003304;29;20438;-61
2021/04/04 07:04:55;;;;;;;107.93;72.55;;;;;;;;;;10003964;29;20059;-61
2021/04/04 07:10:10;;;;;;;26.85;22.88;;;;;;;;;;10002784;29;20083;-62
2021/04/04 07:15:12;;;;;;;37.00;27.20;;;;;;;;;;10001682;29;20060;-61
2021/04/04 07:20:26;;;;;;;35.10;30.77;;;;;;;;;;10003308;29;20056;-60
2021/04/04 07:25:34;;;;;;;24.48;20.90;;;;;;;;;;10000607;29;20099;-61
2021/04/04 07:30:35;;;;;;;22.33;20.02;;;;;;;;;;10002298;29;20095;-60
2021/04/04 07:35:34;;;;;;;30.13;25.92;;;;;;;;;;10002354;29;20079;-60
2021/04/04 07:40:35;;;;;;;27.73;21.80;;;;;;;;;;10001790;29;20048;-59
2021/04/04 07:45:36;;;;;;;29.88;26.65;;;;;;;;;;10001310;29;20083;-61
2021/04/04 07:50:35;;;;;;;27.52;21.92;;;;;;;;;;10000722;29;20487;-59
2021/04/04 07:55:37;;;;;;;27.13;23.45;;;;;;;;;;10015350;29;20083;-60
2021/04/04 08:00:35;;;;;;;23.35;19.92;;;;;;;;;;10008048;29;20450;-62
2021/04/04 08:05:35;;;;;;;20.13;17.98;;;;;;;;;;10013334;29;20083;-59
2021/04/04 08:11:00;;;;;;;17.23;14.43;;;;;;;;;;10006959;29;20082;-60
2021/04/04 08:16:03;;;;;;;20.50;17.58;;;;;;;;;;10013850;29;20079;-62
2021/04/04 08:21:02;;;;;;;24.02;18.70;;;;;;;;;;10000584;29;20072;-61
2021/04/04 08:26:01;;;;;;;11.50;9.93;;;;;;;;;;10023395;29;20055;-62
2021/04/04 08:31:02;;;;;;;9.50;7.90;;;;;;;;;;10038920;29;20098;-60
2021/04/04 08:36:00;;;;;;;9.00;7.30;;;;;;;;;;10038400;29;20100;-61
2021/04/04 08:40:58;;;;;;;12.73;9.63;;;;;;;;;;10038534;29;20071;-62
2021/04/04 08:46:03;;;;;;;13.57;10.50;;;;;;;;;;10038306;29;20055;-61
2021/04/04 08:51:05;;;;;;;18.73;14.82;;;;;;;;;;10037741;29;20098;-61
2021/04/04 08:56:02;;;;;;;10.88;9.13;;;;;;;;;;10034559;29;20087;-63
2021/04/04 09:01:03;;;;;;;13.65;11.77;;;;;;;;;;10033993;29;20071;-62
2021/04/04 09:06:04;;;;;;;11.48;10.48;;;;;;;;;;10035629;29;20071;-61
2021/04/04 09:11:02;;;;;;;25.13;18.52;;;;;;;;;;10037583;29;20086;-61
2021/04/04 09:16:02;;;;;;;14.32;12.60;;;;;;;;;;10037622;29;20043;-62
2021/04/04 09:21:05;;;;;;;12.27;9.55;;;;;;;;;;10037362;29;20448;-60
2021/04/04 09:26:03;;;;;;;19.95;11.80;;;;;;;;;;10037541;29;20095;-62
2021/04/04 09:31:01;;;;;;;31.15;21.60;;;;;;;;;;10037052;29;20083;-61
2021/04/04 09:36:00;;;;;;;12.38;9.80;;;;;;;;;;10036653;29;20082;-57
2021/04/04 09:40:59;;;;;;;17.27;14.07;;;;;;;;;;10024034;29;20075;-61
2021/04/04 09:46:03;;;;;;;20.30;18.25;;;;;;;;;;10016651;29;20110;-59
2021/04/04 09:51:08;;;;;;;13.90;9.00;;;;;;;;;;10018438;29;20493;-60
2021/04/04 09:56:07;;;;;;;12.75;11.40;;;;;;;;;;10017955;29;20083;-60
2021/04/04 10:01:13;;;;;;;10.32;8.70;;;;;;;;;;10005443;29;20048;-58
2021/04/04 10:06:11;;;;;;;9.82;8.38;;;;;;;;;;10017169;29;20134;-60
2021/04/04 10:11:15;;;;;;;9.20;7.38;;;;;;;;;;10017122;29;20083;-58
2021/04/04 10:16:19;;;;;;;8.25;6.65;;;;;;;;;;10015977;29;20075;-61
2021/04/04 10:21:17;;;;;;;11.93;8.15;;;;;;;;;;10017694;29;20079;-58
2021/04/04 10:26:19;;;;;;;6.47;5.88;;;;;;;;;;10029981;29;20052;-60
2021/04/04 10:31:17;;;;;;;11.02;9.45;;;;;;;;;;10043627;29;20095;-60
2021/04/04 10:36:15;;;;;;;11.18;7.60;;;;;;;;;;10031217;29;20083;-60
2021/04/04 10:41:24;;;;;;;11.05;8.10;;;;;;;;;;10035507;29;20048;-60
2021/04/04 10:46:25;;;;;;;18.70;13.55;;;;;;;;;;10002916;29;20051;-60
2021/04/04 10:51:22;;;;;;;10.57;7.22;;;;;;;;;;10004300;29;20497;-60
2021/04/04 10:56:20;;;;;;;11.10;8.68;;;;;;;;;;10003969;29;20497;-60
2021/04/04 11:01:17;;;;;;;13.90;10.27;;;;;;;;;;10003507;29;20498;-60
2021/04/04 11:06:16;;;;;;;19.40;13.45;;;;;;;;;;10003424;29;20080;-60
2021/04/04 11:11:14;;;;;;;8.70;7.43;;;;;;;;;;10002897;29;20083;-60
2021/04/04 11:16:12;;;;;;;11.23;9.43;;;;;;;;;;10002954;29;20075;-59
2021/04/04 11:21:10;;;;;;;11.23;10.13;;;;;;;;;;10002786;29;20087;-61
2021/04/04 11:26:25;;;;;;;18.17;14.43;;;;;;;;;;10001987;29;20084;-60
2021/04/04 11:31:24;;;;;;;48.00;31.42;;;;;;;;;;10002111;29;20098;-58
2021/04/04 11:36:35;;;;;;;21.35;17.23;;;;;;;;;;10007215;29;20075;-60
2021/04/04 11:41:44;;;;;;;21.88;12.38;;;;;;;;;;10003142;29;20099;-60
2021/04/04 11:46:44;;;;;;;10.45;9.13;;;;;;;;;;10001665;29;20048;-60
2021/04/04 11:51:41;;;;;;;9.52;7.85;;;;;;;;;;10002226;29;20088;-58
2021/04/04 11:56:43;;;;;;;14.57;9.60;;;;;;;;;;10031970;29;20501;-60
2021/04/04 12:01:41;;;;;;;13.63;11.93;;;;;;;;;;10039665;29;20572;-59
2021/04/04 12:06:38;;;;;;;18.48;16.05;;;;;;;;;;10039568;29;20386;-60
2021/04/04 12:11:36;;;;;;;16.20;13.93;;;;;;;;;;10038827;29;20075;-61
2021/04/04 12:16:46;;;;;;;33.00;19.70;;;;;;;;;;10039040;29;20074;-61
2021/04/04 12:21:53;;;;;;;24.75;18.90;;;;;;;;;;10038845;29;20082;-64
2021/04/04 12:26:53;;;;;;;12.55;9.23;;;;;;;;;;10038676;29;20470;-60
2021/04/04 12:31:52;;;;;;;23.30;17.38;;;;;;;;;;10038505;29;20080;-60
2021/04/04 12:36:49;;;;;;;11.98;10.32;;;;;;;;;;10038750;29;20050;-60
2021/04/04 12:41:46;;;;;;;15.63;11.70;;;;;;;;;;10038132;29;20079;-60
2021/04/04 12:46:44;;;;;;;20.08;16.45;;;;;;;;;;10038277;29;20075;-59
2021/04/04 12:51:42;;;;;;;21.48;16.20;;;;;;;;;;10037954;29;20075;-60
2021/04/04 12:56:39;;;;;;;15.23;12.18;;;;;;;;;;10038198;29;20056;-59
2021/04/04 13:01:42;;;;;;;27.48;17.80;;;;;;;;;;10038003;29;20434;-61
2021/04/04 13:06:39;;;;;;;14.43;12.93;;;;;;;;;;10037509;29;20051;-61
2021/04/04 13:11:38;;;;;;;13.55;10.88;;;;;;;;;;10035538;29;20109;-61
2021/04/04 13:16:35;;;;;;;16.30;13.38;;;;;;;;;;10037619;29;20082;-59
2021/04/04 13:21:33;;;;;;;16.05;12.40;;;;;;;;;;10036464;29;20052;-59
2021/04/04 13:26:32;;;;;;;13.48;12.07;;;;;;;;;;10037565;29;20465;-60
2021/04/04 13:31:30;;;;;;;15.48;10.73;;;;;;;;;;10037185;29;20091;-59
2021/04/04 13:36:28;;;;;;;18.10;14.88;;;;;;;;;;10037100;29;20055;-59
2021/04/04 13:41:25;;;;;;;14.35;11.45;;;;;;;;;;10037153;29;20086;-59
2021/04/04 13:46:30;;;;;;;30.40;20.60;;;;;;;;;;10037008;29;20078;-59
2021/04/04 13:51:28;;;;;;;10.00;8.80;;;;;;;;;;10036884;29;20101;-59
2021/04/04 13:56:33;;;;;;;13.32;10.00;;;;;;;;;;10036622;29;20689;-59
2021/04/04 14:01:31;;;;;;;12.57;10.18;;;;;;;;;;10036589;29;20063;-59
2021/04/04 14:06:33;;;;;;;13.02;10.88;;;;;;;;;;10036477;29;20052;-59
2021/04/04 14:11:31;;;;;;;18.23;14.40;;;;;;;;;;10036503;29;20044;-59
2021/04/04 14:16:28;;;;;;;42.85;28.23;;;;;;;;;;10035864;29;20083;-58
2021/04/04 14:21:26;;;;;;;26.67;17.80;;;;;;;;;;10018456;29;20169;-59
2021/04/04 14:26:24;;;;;;;17.50;13.85;;;;;;;;;;10034227;29;20091;-59
2021/04/04 14:31:21;;;;;;;17.73;15.40;;;;;;;;;;10016013;29;20079;-61
2021/04/04 14:36:19;;;;;;;15.35;13.55;;;;;;;;;;10028047;29;20059;-59
2021/04/04 14:41:16;;;;;;;26.17;20.38;;;;;;;;;;10028697;29;20079;-59
2021/04/04 14:46:15;;;;;;;18.92;13.88;;;;;;;;;;10030082;29;20516;-59
2021/04/04 14:51:12;;;;;;;11.48;10.20;;;;;;;;;;10022110;29;20067;-58
2021/04/04 14:56:11;;;;;;;15.57;12.80;;;;;;;;;;10029059;29;20476;-59
2021/04/04 15:01:09;;;;;;;17.83;14.57;;;;;;;;;;10014400;29;20075;-60
2021/04/04 15:06:08;;;;;;;13.60;12.18;;;;;;;;;;10025455;29;20591;-60
2021/04/04 15:11:06;;;;;;;32.25;24.38;;;;;;;;;;10013863;29;20060;-57
2021/04/04 15:16:03;;;;;;;89.80;65.05;;;;;;;;;;10018478;29;20578;-59
2021/04/04 15:21:01;;;;;;;43.50;38.03;;;;;;;;;;10041440;29;20543;-59
2021/04/04 15:25:59;;;;;;;26.13;23.42;;;;;;;;;;10041416;29;20074;-61
2021/04/04 15:30:57;;;;;;;16.67;14.88;;;;;;;;;;10017989;29;20102;-57
2021/04/04 15:35:57;;;;;;;19.58;16.45;;;;;;;;;;10022501;29;20091;-59
2021/04/04 15:40:54;;;;;;;30.83;23.40;;;;;;;;;;10016259;29;20083;-59
2021/04/04 15:45:54;;;;;;;21.05;16.77;;;;;;;;;;10015299;29;20044;-59
2021/04/04 15:50:52;;;;;;;23.38;17.80;;;;;;;;;;10014964;29;20074;-58
2021/04/04 15:55:49;;;;;;;26.48;20.38;;;;;;;;;;10014691;29;20087;-60
2021/04/04 16:00:46;;;;;;;32.55;26.65;;;;;;;;;;10031270;29;20047;-59
2021/04/04 16:05:44;;;;;;;88.07;60.17;;;;;;;;;;10014513;29;20536;-61
2021/04/04 16:10:44;;;;;;;50.22;30.98;;;;;;;;;;10027309;29;20075;-60
2021/04/04 16:15:44;;;;;;;73.25;48.00;;;;;;;;;;10017977;29;20087;-59
2021/04/04 16:20:42;;;;;;;64.97;46.20;;;;;;;;;;10001028;29;20040;-60
2021/04/04 16:26:00;;;;;;;81.72;51.28;;;;;;;;;;10018413;29;20079;-60
2021/04/04 16:30:57;;;;;;;74.70;49.70;;;;;;;;;;10017999;29;20079;-60
2021/04/04 16:35:54;;;;;;;64.20;45.58;;;;;;;;;;10010838;29;20090;-61
2021/04/04 16:40:52;;;;;;;45.90;35.08;;;;;;;;;;9999925;29;20068;-60
2021/04/04 16:45:50;;;;;;;66.95;48.45;;;;;;;;;;10007134;29;20439;-59
2021/04/04 16:50:47;;;;;;;41.63;29.58;;;;;;;;;;10013990;29;20052;-60
2021/04/04 16:55:45;;;;;;;22.70;15.70;;;;;;;;;;10007836;29;20091;-59
2021/04/04 17:00:42;;;;;;;23.20;16.02;;;;;;;;;;9994745;29;20079;-60
2021/04/04 17:05:40;;;;;;;16.23;13.57;;;;;;;;;;9997451;29;20059;-60
2021/04/04 17:10:38;;;;;;;21.95;15.23;;;;;;;;;;9998156;29;20083;-60
2021/04/04 17:15:35;;;;;;;16.58;14.75;;;;;;;;;;9998616;29;20086;-59
2021/04/04 17:20:32;;;;;;;16.67;14.57;;;;;;;;;;9997334;29;20052;-60
2021/04/04 17:25:31;;;;;;;26.08;21.70;;;;;;;;;;9998638;29;20048;-61
2021/04/04 17:30:28;;;;;;;27.13;22.00;;;;;;;;;;9997603;29;20082;-60
2021/04/04 17:35:26;;;;;;;44.53;33.10;;;;;;;;;;9998509;29;20091;-61
2021/04/04 17:40:24;;;;;;;51.83;38.70;;;;;;;;;;9997156;29;20530;-60
2021/04/04 17:45:24;;;;;;;80.05;58.42;;;;;;;;;;9997555;29;20102;-61
2021/04/04 17:50:21;;;;;;;64.22;44.80;;;;;;;;;;9996679;29;20056;-61
2021/04/04 17:55:19;;;;;;;55.88;40.90;;;;;;;;;;9998223;29;20091;-60
2021/04/04 18:00:18;;;;;;;98.30;73.22;;;;;;;;;;9998196;29;20320;-61
2021/04/04 18:05:21;;;;;;;56.70;45.45;;;;;;;;;;9998351;29;20092;-60
2021/04/04 18:15:35;;;;;;;50.92;35.28;;;;;;;;;;10005254;29;20500;-61
2021/04/04 18:20:33;;;;;;;45.75;32.70;;;;;;;;;;10003246;29;20067;-60
2021/04/04 18:25:30;;;;;;;70.22;45.17;;;;;;;;;;10004294;29;20056;-62
2021/04/04 18:30:28;;;;;;;85.88;56.47;;;;;;;;;;10004677;29;20056;-60
2021/04/04 18:35:25;;;;;;;138.52;97.30;;;;;;;;;;10004416;29;20351;-61
2021/04/04 18:40:23;;;;;;;88.55;56.05;;;;;;;;;;10003508;29;20047;-60
2021/04/04 18:45:21;;;;;;;46.55;30.65;;;;;;;;;;10004903;29;20098;-61
2021/04/04 18:50:18;;;;;;;46.47;31.75;;;;;;;;;;10004917;29;20068;-61
2021/04/04 18:55:16;;;;;;;22.63;18.45;;;;;;;;;;10004248;29;20095;-60
2021/04/04 19:00:15;;;;;;;20.88;18.70;;;;;;;;;;10003809;29;20091;-61
2021/04/04 19:05:13;;;;;;;20.33;17.02;;;;;;;;;;10004033;29;20478;-61
2021/04/04 19:10:13;;;;;;;17.20;15.32;;;;;;;;;;10004098;29;20514;-60
2021/04/04 19:15:11;;;;;;;16.05;13.23;;;;;;;;;;10002508;29;20102;-60
2021/04/04 19:20:10;;;;;;;22.40;16.33;;;;;;;;;;10002602;29;20402;-61
2021/04/04 19:25:08;;;;;;;14.57;12.90;;;;;;;;;;10003672;29;20051;-60
2021/04/04 19:30:06;;;;;;;20.38;16.17;;;;;;;;;;10002999;29;20083;-60
2021/04/04 19:35:04;;;;;;;20.17;17.48;;;;;;;;;;10003350;29;20517;-60
2021/04/04 19:40:03;;;;;;;14.85;13.18;;;;;;;;;;10002626;29;20048;-61
2021/04/04 19:45:17;;;;;;;21.80;17.23;;;;;;;;;;10002490;29;20084;-62
2021/04/04 19:50:15;;;;;;;18.48;15.38;;;;;;;;;;10000280;29;20079;-62
2021/04/04 19:55:14;;;;;;;10.70;9.60;;;;;;;;;;10002546;29;20095;-61
2021/04/04 20:00:12;;;;;;;13.90;12.43;;;;;;;;;;10001430;29;20091;-61
2021/04/04 20:05:25;;;;;;;13.70;12.20;;;;;;;;;;10013559;29;20074;-61
2021/04/04 20:10:25;;;;;;;14.93;13.35;;;;;;;;;;10018049;29;20086;-60
2021/04/04 20:15:22;;;;;;;13.30;11.90;;;;;;;;;;10015793;29;20084;-61
2021/04/04 20:20:19;;;;;;;13.80;11.95;;;;;;;;;;10009946;29;20078;-60
2021/04/04 20:25:17;;;;;;;13.35;10.90;;;;;;;;;;10024354;29;20106;-61
2021/04/04 20:30:23;;;;;;;11.00;9.90;;;;;;;;;;10018545;29;20064;-60
2021/04/04 20:35:27;;;;;;;14.60;11.25;;;;;;;;;;10023289;29;20088;-62
2021/04/04 20:40:24;;;;;;;11.65;10.32;;;;;;;;;;9999117;29;20082;-61
2021/04/04 20:45:23;;;;;;;13.23;11.82;;;;;;;;;;9999895;29;20421;-62
2021/04/04 20:50:22;;;;;;;12.52;10.68;;;;;;;;;;10004769;29;20288;-61
2021/04/04 20:55:19;;;;;;;14.77;12.57;;;;;;;;;;10021438;29;20492;-61
2021/04/04 21:00:18;;;;;;;14.68;11.40;;;;;;;;;;10017857;29;20157;-61
2021/04/04 21:05:16;;;;;;;19.65;12.35;;;;;;;;;;10037462;29;20054;-61
2021/04/04 21:10:14;;;;;;;20.88;18.45;;;;;;;;;;10035560;29;20067;-60
2021/04/04 21:15:12;;;;;;;19.30;15.38;;;;;;;;;;10036039;29;20528;-61
2021/04/04 21:20:09;;;;;;;21.25;16.80;;;;;;;;;;10038339;29;20080;-62
2021/04/04 21:25:09;;;;;;;19.58;17.50;;;;;;;;;;10037629;29;20083;-61
2021/04/04 21:30:08;;;;;;;18.25;16.35;;;;;;;;;;10035638;29;20346;-60
2021/04/04 21:35:06;;;;;;;19.60;14.95;;;;;;;;;;10037888;29;20079;-61
2021/04/04 21:40:05;;;;;;;18.05;15.20;;;;;;;;;;10036495;29;20079;-60
2021/04/04 21:45:03;;;;;;;13.15;11.75;;;;;;;;;;10043109;29;20067;-61
2021/04/04 21:50:01;;;;;;;20.60;18.45;;;;;;;;;;10045644;29;20071;-61
2021/04/04 21:54:58;;;;;;;13.25;11.85;;;;;;;;;;10043905;29;20086;-60
2021/04/04 21:59:55;;;;;;;10.05;9.05;;;;;;;;;;10045509;29;20051;-60
2021/04/04 22:04:54;;;;;;;9.07;7.28;;;;;;;;;;10045338;29;20071;-58
2021/04/04 22:09:51;;;;;;;8.10;7.30;;;;;;;;;;10045170;29;20040;-60
2021/04/04 22:14:50;;;;;;;8.00;7.28;;;;;;;;;;10042223;29;20087;-60
2021/04/04 22:19:47;;;;;;;8.40;7.60;;;;;;;;;;10043927;29;20094;-62
2021/04/04 22:24:46;;;;;;;11.02;9.02;;;;;;;;;;10044363;29;20071;-61
2021/04/04 22:29:45;;;;;;;9.13;7.93;;;;;;;;;;10043394;29;20087;-62
2021/04/04 22:34:42;;;;;;;9.15;8.25;;;;;;;;;;10043306;29;20118;-62
2021/04/04 22:39:40;;;;;;;9.50;7.97;;;;;;;;;;10039684;29;20063;-61
2021/04/04 22:44:39;;;;;;;10.00;9.00;;;;;;;;;;10038847;29;20071;-60
2021/04/04 22:49:36;;;;;;;12.00;9.05;;;;;;;;;;10039335;29;20497;-61
2021/04/04 22:54:33;;;;;;;10.25;8.88;;;;;;;;;;10041840;29;20505;-61
2021/04/04 22:59:31;;;;;;;12.60;8.65;;;;;;;;;;10042323;29;20039;-62
2021/04/04 23:04:29;;;;;;;10.43;8.05;;;;;;;;;;10041383;29;20055;-60
2021/04/04 23:09:26;;;;;;;12.35;10.68;;;;;;;;;;10042814;29;20409;-61
2021/04/04 23:14:24;;;;;;;18.35;15.38;;;;;;;;;;10042200;29;20079;-61
2021/04/04 23:19:21;;;;;;;17.33;14.07;;;;;;;;;;10041438;29;20075;-61
2021/04/04 23:24:19;;;;;;;21.80;14.95;;;;;;;;;;10041861;29;20051;-61
2021/04/04 23:29:16;;;;;;;16.10;11.18;;;;;;;;;;10040985;29;20074;-60
2021/04/04 23:34:14;;;;;;;14.93;10.90;;;;;;;;;;10040529;29;20083;-60
2021/04/04 23:39:11;;;;;;;15.45;11.77;;;;;;;;;;10041360;29;20070;-61
2021/04/04 23:44:09;;;;;;;18.15;12.23;;;;;;;;;;10028412;29;20075;-62
2021/04/04 23:49:07;;;;;;;20.02;12.73;;;;;;;;;;10020118;29;20075;-62
2021/04/04 23:54:04;;;;;;;14.93;11.40;;;;;;;;;;10012421;29;20090;-61
2021/04/04 23:59:01;;;;;;;11.93;8.48;;;;;;;;;;10028096;29;20078;-61
